sensor_id;sensor_type;location;lat;lon;timestamp;temperature;humidity
67769;DHT22;54569;52.018;5.584;2022-12-31T00:02:10;13.00;99.90
67769;DHT22;54569;52.018;5.584;2022-12-31T00:04:36;13.00;99.90
67769;DHT22;54569;52.018;5.584;2022-12-31T00:07:01;13.00;99.90
67769;DHT22;54569;52.018;5.584;2022-12-31T00:09:27;13.00;99.90
67769;DHT22;54569;52.018;5.584;2022-12-31T00:11:53;13.00;99.90
67769;DHT22;54569;52.018;5.584;2022-12-31T00:14:18;13.00;99.90
67769;DHT22;54569;52.018;5.584;2022-12-31T00:16:44;13.00;99.90
67769;DHT22;54569;52.018;5.584;2022-12-31T00:19:10;13.00;99.90
67769;DHT22;54569;52.018;5.584;2022-12-31T00:21:37;13.00;99.90
67769;DHT22;54569;52.018;5.584;2022-12-31T00:24:04;13.00;99.90
67769;DHT22;54569;52.018;5.584;2022-12-31T00:26:32;13.10;99.90
67769;DHT22;54569;52.018;5.584;2022-12-31T00:28:59;13.10;99.90
67769;DHT22;54569;52.018;5.584;2022-12-31T00:31:34;13.00;99.90
67769;DHT22;54569;52.018;5.584;2022-12-31T00:34:00;13.00;99.90
67769;DHT22;54569;52.018;5.584;2022-12-31T00:36:28;13.00;99.90
67769;DHT22;54569;52.018;5.584;2022-12-31T00:38:55;13.00;99.90
67769;DHT22;54569;52.018;5.584;2022-12-31T00:41:22;13.00;99.90
67769;DHT22;54569;52.018;5.584;2022-12-31T00:43:49;12.90;99.90
67769;DHT22;54569;52.018;5.584;2022-12-31T00:46:15;12.90;99.90
67769;DHT22;54569;52.018;5.584;2022-12-31T00:48:42;12.90;99.90
67769;DHT22;54569;52.018;5.584;2022-12-31T00:51:09;12.90;99.90
67769;DHT22;54569;52.018;5.584;2022-12-31T00:53:36;12.80;99.90
67769;DHT22;54569;52.018;5.584;2022-12-31T00:56:06;12.80;99.90
67769;DHT22;54569;52.018;5.584;2022-12-31T00:58:33;12.80;99.90
67769;DHT22;54569;52.018;5.584;2022-12-31T01:01:23;12.80;99.90
67769;DHT22;54569;52.018;5.584;2022-12-31T01:03:51;12.80;99.90
67769;DHT22;54569;52.018;5.584;2022-12-31T01:06:17;12.80;99.90
67769;DHT22;54569;52.018;5.584;2022-12-31T01:08:43;12.80;99.90
67769;DHT22;54569;52.018;5.584;2022-12-31T01:11:11;12.70;99.90
67769;DHT22;54569;52.018;5.584;2022-12-31T01:13:51;12.80;99.90
67769;DHT22;54569;52.018;5.584;2022-12-31T01:16:20;12.70;99.90
67769;DHT22;54569;52.018;5.584;2022-12-31T01:18:47;12.70;99.90
67769;DHT22;54569;52.018;5.584;2022-12-31T01:21:13;12.70;99.90
67769;DHT22;54569;52.018;5.584;2022-12-31T01:23:39;12.70;99.90
67769;DHT22;54569;52.018;5.584;2022-12-31T01:26:08;12.70;99.90
67769;DHT22;54569;52.018;5.584;2022-12-31T01:28:34;12.70;99.90
67769;DHT22;54569;52.018;5.584;2022-12-31T01:31:05;12.60;99.90
67769;DHT22;54569;52.018;5.584;2022-12-31T01:33:32;12.60;99.90
67769;DHT22;54569;52.018;5.584;2022-12-31T01:36:21;12.60;99.90
67769;DHT22;54569;52.018;5.584;2022-12-31T01:38:48;12.60;99.90
67769;DHT22;54569;52.018;5.584;2022-12-31T01:41:17;12.60;99.90
67769;DHT22;54569;52.018;5.584;2022-12-31T01:46:18;12.60;99.90
67769;DHT22;54569;52.018;5.584;2022-12-31T01:48:48;12.50;99.90
67769;DHT22;54569;52.018;5.584;2022-12-31T01:51:14;12.50;99.90
67769;DHT22;54569;52.018;5.584;2022-12-31T01:53:41;12.50;99.90
67769;DHT22;54569;52.018;5.584;2022-12-31T01:56:08;12.50;99.90
67769;DHT22;54569;52.018;5.584;2022-12-31T01:58:40;12.50;99.90
67769;DHT22;54569;52.018;5.584;2022-12-31T02:01:07;12.50;99.90
67769;DHT22;54569;52.018;5.584;2022-12-31T02:03:34;12.50;99.90
67769;DHT22;54569;52.018;5.584;2022-12-31T02:06:02;12.50;99.90
67769;DHT22;54569;52.018;5.584;2022-12-31T02:08:29;12.50;99.90
67769;DHT22;54569;52.018;5.584;2022-12-31T02:10:55;12.50;99.90
67769;DHT22;54569;52.018;5.584;2022-12-31T02:13:21;12.50;99.90
67769;DHT22;54569;52.018;5.584;2022-12-31T02:15:57;12.50;99.90
67769;DHT22;54569;52.018;5.584;2022-12-31T02:24:01;12.50;99.90
67769;DHT22;54569;52.018;5.584;2022-12-31T02:29:36;12.40;99.90
67769;DHT22;54569;52.018;5.584;2022-12-31T02:32:22;12.40;99.90
67769;DHT22;54569;52.018;5.584;2022-12-31T02:34:53;12.40;99.90
67769;DHT22;54569;52.018;5.584;2022-12-31T02:37:22;12.40;99.90
67769;DHT22;54569;52.018;5.584;2022-12-31T02:39:49;12.30;99.90
67769;DHT22;54569;52.018;5.584;2022-12-31T02:42:15;12.30;99.90
67769;DHT22;54569;52.018;5.584;2022-12-31T02:44:41;12.30;99.90
67769;DHT22;54569;52.018;5.584;2022-12-31T02:47:19;12.30;99.90
67769;DHT22;54569;52.018;5.584;2022-12-31T02:55:39;12.30;99.90
67769;DHT22;54569;52.018;5.584;2022-12-31T03:01:29;12.30;99.90
67769;DHT22;54569;52.018;5.584;2022-12-31T03:04:17;12.20;99.90
67769;DHT22;54569;52.018;5.584;2022-12-31T03:07:06;12.20;99.90
67769;DHT22;54569;52.018;5.584;2022-12-31T03:09:33;12.20;99.90
67769;DHT22;54569;52.018;5.584;2022-12-31T03:12:00;12.20;99.90
67769;DHT22;54569;52.018;5.584;2022-12-31T03:14:45;12.20;99.90
67769;DHT22;54569;52.018;5.584;2022-12-31T03:17:11;12.20;99.90
67769;DHT22;54569;52.018;5.584;2022-12-31T03:19:37;12.20;99.90
67769;DHT22;54569;52.018;5.584;2022-12-31T03:22:21;12.20;99.90
67769;DHT22;54569;52.018;5.584;2022-12-31T03:25:07;12.10;99.90
67769;DHT22;54569;52.018;5.584;2022-12-31T03:27:52;12.10;99.90
67769;DHT22;54569;52.018;5.584;2022-12-31T03:30:19;12.10;99.90
67769;DHT22;54569;52.018;5.584;2022-12-31T03:32:46;12.10;99.90
67769;DHT22;54569;52.018;5.584;2022-12-31T03:35:14;12.10;99.90
67769;DHT22;54569;52.018;5.584;2022-12-31T03:37:41;12.10;99.90
67769;DHT22;54569;52.018;5.584;2022-12-31T03:40:08;12.10;99.90
67769;DHT22;54569;52.018;5.584;2022-12-31T03:42:36;12.10;99.90
67769;DHT22;54569;52.018;5.584;2022-12-31T03:45:03;12.00;99.90
67769;DHT22;54569;52.018;5.584;2022-12-31T03:47:29;12.00;99.90
67769;DHT22;54569;52.018;5.584;2022-12-31T03:49:54;12.00;99.90
67769;DHT22;54569;52.018;5.584;2022-12-31T03:52:20;12.00;99.90
67769;DHT22;54569;52.018;5.584;2022-12-31T03:54:45;12.00;99.90
67769;DHT22;54569;52.018;5.584;2022-12-31T03:57:11;12.00;99.90
67769;DHT22;54569;52.018;5.584;2022-12-31T03:59:37;12.00;99.90
67769;DHT22;54569;52.018;5.584;2022-12-31T04:02:03;12.00;99.90
67769;DHT22;54569;52.018;5.584;2022-12-31T04:04:29;12.00;99.90
67769;DHT22;54569;52.018;5.584;2022-12-31T04:06:55;12.00;99.90
67769;DHT22;54569;52.018;5.584;2022-12-31T04:09:20;12.00;99.90
67769;DHT22;54569;52.018;5.584;2022-12-31T04:11:46;12.00;99.90
67769;DHT22;54569;52.018;5.584;2022-12-31T04:14:12;11.90;99.90
67769;DHT22;54569;52.018;5.584;2022-12-31T04:16:38;11.90;99.90
67769;DHT22;54569;52.018;5.584;2022-12-31T04:19:04;11.90;99.90
67769;DHT22;54569;52.018;5.584;2022-12-31T04:21:30;11.90;99.90
67769;DHT22;54569;52.018;5.584;2022-12-31T04:23:55;11.90;99.90
67769;DHT22;54569;52.018;5.584;2022-12-31T04:26:21;11.90;99.90
67769;DHT22;54569;52.018;5.584;2022-12-31T04:28:47;11.90;99.90
67769;DHT22;54569;52.018;5.584;2022-12-31T04:31:12;11.90;99.90
67769;DHT22;54569;52.018;5.584;2022-12-31T04:33:38;11.90;99.90
67769;DHT22;54569;52.018;5.584;2022-12-31T04:36:05;11.90;99.90
67769;DHT22;54569;52.018;5.584;2022-12-31T04:38:33;11.90;99.90
67769;DHT22;54569;52.018;5.584;2022-12-31T04:40:58;11.90;99.90
67769;DHT22;54569;52.018;5.584;2022-12-31T04:43:44;11.90;99.90
67769;DHT22;54569;52.018;5.584;2022-12-31T04:46:10;11.80;99.90
67769;DHT22;54569;52.018;5.584;2022-12-31T04:48:36;11.90;99.90
67769;DHT22;54569;52.018;5.584;2022-12-31T04:51:02;11.90;99.90
67769;DHT22;54569;52.018;5.584;2022-12-31T04:53:29;11.90;99.90
67769;DHT22;54569;52.018;5.584;2022-12-31T04:55:54;11.90;99.90
67769;DHT22;54569;52.018;5.584;2022-12-31T04:58:21;11.90;99.90
67769;DHT22;54569;52.018;5.584;2022-12-31T05:00:47;11.90;99.90
67769;DHT22;54569;52.018;5.584;2022-12-31T05:03:20;11.90;99.90
67769;DHT22;54569;52.018;5.584;2022-12-31T05:05:46;11.90;99.90
67769;DHT22;54569;52.018;5.584;2022-12-31T05:08:12;11.90;99.90
67769;DHT22;54569;52.018;5.584;2022-12-31T05:10:48;11.90;99.90
67769;DHT22;54569;52.018;5.584;2022-12-31T05:13:14;12.00;99.90
67769;DHT22;54569;52.018;5.584;2022-12-31T05:15:41;11.90;99.90
67769;DHT22;54569;52.018;5.584;2022-12-31T05:18:07;12.00;99.90
67769;DHT22;54569;52.018;5.584;2022-12-31T05:20:33;12.00;99.90
67769;DHT22;54569;52.018;5.584;2022-12-31T05:23:00;12.00;99.90
67769;DHT22;54569;52.018;5.584;2022-12-31T05:25:25;12.00;99.90
67769;DHT22;54569;52.018;5.584;2022-12-31T05:27:51;12.10;99.90
67769;DHT22;54569;52.018;5.584;2022-12-31T05:30:17;12.10;99.90
67769;DHT22;54569;52.018;5.584;2022-12-31T05:32:44;12.10;99.90
67769;DHT22;54569;52.018;5.584;2022-12-31T05:35:10;12.10;99.90
67769;DHT22;54569;52.018;5.584;2022-12-31T05:37:36;12.10;99.90
67769;DHT22;54569;52.018;5.584;2022-12-31T05:40:02;12.10;99.90
67769;DHT22;54569;52.018;5.584;2022-12-31T05:42:28;12.10;99.90
67769;DHT22;54569;52.018;5.584;2022-12-31T05:44:54;12.20;99.90
67769;DHT22;54569;52.018;5.584;2022-12-31T05:47:19;12.20;99.90
67769;DHT22;54569;52.018;5.584;2022-12-31T05:49:45;12.20;99.90
67769;DHT22;54569;52.018;5.584;2022-12-31T05:52:11;12.20;99.90
67769;DHT22;54569;52.018;5.584;2022-12-31T05:54:36;12.20;99.90
67769;DHT22;54569;52.018;5.584;2022-12-31T05:57:03;12.20;99.90
67769;DHT22;54569;52.018;5.584;2022-12-31T05:59:29;12.20;99.90
67769;DHT22;54569;52.018;5.584;2022-12-31T06:01:55;12.20;99.90
67769;DHT22;54569;52.018;5.584;2022-12-31T06:04:21;12.30;99.90
67769;DHT22;54569;52.018;5.584;2022-12-31T06:06:47;12.30;99.90
67769;DHT22;54569;52.018;5.584;2022-12-31T06:09:14;12.20;99.90
67769;DHT22;54569;52.018;5.584;2022-12-31T06:11:40;12.30;99.90
67769;DHT22;54569;52.018;5.584;2022-12-31T06:14:06;12.30;99.90
67769;DHT22;54569;52.018;5.584;2022-12-31T06:16:32;12.30;99.90
67769;DHT22;54569;52.018;5.584;2022-12-31T06:19:01;12.30;99.90
67769;DHT22;54569;52.018;5.584;2022-12-31T06:21:28;12.30;99.90
67769;DHT22;54569;52.018;5.584;2022-12-31T06:23:54;12.30;99.90
67769;DHT22;54569;52.018;5.584;2022-12-31T06:26:19;12.30;99.90
67769;DHT22;54569;52.018;5.584;2022-12-31T06:28:45;12.40;99.90
67769;DHT22;54569;52.018;5.584;2022-12-31T06:31:12;12.40;99.90
67769;DHT22;54569;52.018;5.584;2022-12-31T06:33:38;12.40;99.90
67769;DHT22;54569;52.018;5.584;2022-12-31T06:36:06;12.40;99.90
67769;DHT22;54569;52.018;5.584;2022-12-31T06:38:35;12.40;99.90
67769;DHT22;54569;52.018;5.584;2022-12-31T06:41:05;12.50;99.90
67769;DHT22;54569;52.018;5.584;2022-12-31T06:43:31;12.50;99.90
67769;DHT22;54569;52.018;5.584;2022-12-31T06:46:00;12.50;99.90
67769;DHT22;54569;52.018;5.584;2022-12-31T06:48:26;12.50;99.90
67769;DHT22;54569;52.018;5.584;2022-12-31T06:50:52;12.50;99.90
67769;DHT22;54569;52.018;5.584;2022-12-31T06:53:17;12.60;99.90
67769;DHT22;54569;52.018;5.584;2022-12-31T06:55:43;12.60;99.90
67769;DHT22;54569;52.018;5.584;2022-12-31T06:58:12;12.60;99.90
67769;DHT22;54569;52.018;5.584;2022-12-31T07:00:46;12.60;99.90
67769;DHT22;54569;52.018;5.584;2022-12-31T07:06:01;12.70;99.90
67769;DHT22;54569;52.018;5.584;2022-12-31T07:08:50;12.80;99.90
67769;DHT22;54569;52.018;5.584;2022-12-31T07:11:29;12.80;99.90
67769;DHT22;54569;52.018;5.584;2022-12-31T07:14:21;12.90;99.90
67769;DHT22;54569;52.018;5.584;2022-12-31T07:20:05;13.00;99.90
67769;DHT22;54569;52.018;5.584;2022-12-31T07:22:32;13.00;99.90
67769;DHT22;54569;52.018;5.584;2022-12-31T07:24:58;13.10;99.90
67769;DHT22;54569;52.018;5.584;2022-12-31T07:32:40;13.30;99.90
67769;DHT22;54569;52.018;5.584;2022-12-31T07:35:31;13.30;99.90
67769;DHT22;54569;52.018;5.584;2022-12-31T07:40:55;13.50;99.90
67769;DHT22;54569;52.018;5.584;2022-12-31T07:43:33;13.50;99.90
67769;DHT22;54569;52.018;5.584;2022-12-31T07:46:29;13.50;99.90
67769;DHT22;54569;52.018;5.584;2022-12-31T07:48:58;13.60;99.90
67769;DHT22;54569;52.018;5.584;2022-12-31T07:51:24;13.60;99.90
67769;DHT22;54569;52.018;5.584;2022-12-31T07:53:50;13.60;99.90
67769;DHT22;54569;52.018;5.584;2022-12-31T07:56:15;13.60;99.90
67769;DHT22;54569;52.018;5.584;2022-12-31T08:01:18;13.70;99.90
67769;DHT22;54569;52.018;5.584;2022-12-31T08:04:08;13.70;99.90
67769;DHT22;54569;52.018;5.584;2022-12-31T08:06:59;13.70;99.90
67769;DHT22;54569;52.018;5.584;2022-12-31T08:09:41;13.70;99.90
67769;DHT22;54569;52.018;5.584;2022-12-31T08:12:09;13.80;99.90
67769;DHT22;54569;52.018;5.584;2022-12-31T08:14:45;13.70;99.90
67769;DHT22;54569;52.018;5.584;2022-12-31T08:17:16;13.80;99.90
67769;DHT22;54569;52.018;5.584;2022-12-31T08:19:43;13.70;99.90
67769;DHT22;54569;52.018;5.584;2022-12-31T08:25:28;13.80;99.90
67769;DHT22;54569;52.018;5.584;2022-12-31T08:28:09;13.70;99.90
67769;DHT22;54569;52.018;5.584;2022-12-31T08:40:02;13.60;99.90
67769;DHT22;54569;52.018;5.584;2022-12-31T08:42:44;13.60;99.90
67769;DHT22;54569;52.018;5.584;2022-12-31T08:45:37;13.60;99.90
67769;DHT22;54569;52.018;5.584;2022-12-31T08:51:01;13.50;99.90
67769;DHT22;54569;52.018;5.584;2022-12-31T08:53:27;13.50;99.90
67769;DHT22;54569;52.018;5.584;2022-12-31T08:55:59;13.50;99.90
67769;DHT22;54569;52.018;5.584;2022-12-31T08:58:50;13.50;99.90
67769;DHT22;54569;52.018;5.584;2022-12-31T09:01:19;13.50;99.90
67769;DHT22;54569;52.018;5.584;2022-12-31T09:04:39;13.50;99.90
67769;DHT22;54569;52.018;5.584;2022-12-31T09:06:47;13.50;99.90
67769;DHT22;54569;52.018;5.584;2022-12-31T09:20:04;13.50;99.90
67769;DHT22;54569;52.018;5.584;2022-12-31T09:22:31;13.50;99.90
67769;DHT22;54569;52.018;5.584;2022-12-31T09:24:57;13.60;99.90
67769;DHT22;54569;52.018;5.584;2022-12-31T09:30:12;13.60;99.90
67769;DHT22;54569;52.018;5.584;2022-12-31T09:35:33;13.70;99.90
67769;DHT22;54569;52.018;5.584;2022-12-31T09:38:21;13.70;99.90
67769;DHT22;54569;52.018;5.584;2022-12-31T09:47:22;14.00;99.90
67769;DHT22;54569;52.018;5.584;2022-12-31T09:50:16;14.00;99.90
67769;DHT22;54569;52.018;5.584;2022-12-31T10:01:33;14.20;99.90
67769;DHT22;54569;52.018;5.584;2022-12-31T10:09:15;14.40;99.90
67769;DHT22;54569;52.018;5.584;2022-12-31T10:22:37;14.70;99.90
67769;DHT22;54569;52.018;5.584;2022-12-31T10:30:41;15.00;99.90
67769;DHT22;54569;52.018;5.584;2022-12-31T10:36:08;15.00;99.90
67769;DHT22;54569;52.018;5.584;2022-12-31T10:38:52;15.00;99.90
67769;DHT22;54569;52.018;5.584;2022-12-31T10:55:27;15.10;99.90
67769;DHT22;54569;52.018;5.584;2022-12-31T11:00:56;15.20;99.90
67769;DHT22;54569;52.018;5.584;2022-12-31T11:12:30;15.30;99.90
67769;DHT22;54569;52.018;5.584;2022-12-31T11:20:50;15.20;99.90
67769;DHT22;54569;52.018;5.584;2022-12-31T11:28:50;15.10;99.90
67769;DHT22;54569;52.018;5.584;2022-12-31T11:35:00;15.10;99.90
67769;DHT22;54569;52.018;5.584;2022-12-31T11:37:52;15.20;99.90
67769;DHT22;54569;52.018;5.584;2022-12-31T11:59:58;15.60;99.40
67769;DHT22;54569;52.018;5.584;2022-12-31T12:02:33;15.60;99.70
67769;DHT22;54569;52.018;5.584;2022-12-31T12:05:01;15.60;99.90
67769;DHT22;54569;52.018;5.584;2022-12-31T12:07:28;15.60;99.80
67769;DHT22;54569;52.018;5.584;2022-12-31T12:09:57;15.50;99.90
67769;DHT22;54569;52.018;5.584;2022-12-31T12:12:23;15.50;99.90
67769;DHT22;54569;52.018;5.584;2022-12-31T12:14:52;15.50;99.90
67769;DHT22;54569;52.018;5.584;2022-12-31T12:17:27;15.50;99.90
67769;DHT22;54569;52.018;5.584;2022-12-31T12:20:00;15.50;99.50
67769;DHT22;54569;52.018;5.584;2022-12-31T12:22:28;15.50;99.90
67769;DHT22;54569;52.018;5.584;2022-12-31T12:24:56;15.50;99.90
67769;DHT22;54569;52.018;5.584;2022-12-31T12:27:26;15.50;99.80
67769;DHT22;54569;52.018;5.584;2022-12-31T12:29:52;15.50;99.40
67769;DHT22;54569;52.018;5.584;2022-12-31T12:32:21;15.60;99.50
67769;DHT22;54569;52.018;5.584;2022-12-31T12:34:47;15.60;99.40
67769;DHT22;54569;52.018;5.584;2022-12-31T12:37:30;15.60;99.60
67769;DHT22;54569;52.018;5.584;2022-12-31T12:40:04;15.60;99.20
67769;DHT22;54569;52.018;5.584;2022-12-31T12:42:30;15.50;99.60
67769;DHT22;54569;52.018;5.584;2022-12-31T12:45:05;15.50;99.70
67769;DHT22;54569;52.018;5.584;2022-12-31T12:47:32;15.50;99.70
67769;DHT22;54569;52.018;5.584;2022-12-31T12:49:58;15.50;99.90
67769;DHT22;54569;52.018;5.584;2022-12-31T12:52:49;15.40;99.80
67769;DHT22;54569;52.018;5.584;2022-12-31T13:18:18;15.30;99.40
67769;DHT22;54569;52.018;5.584;2022-12-31T13:20:49;15.30;99.10
67769;DHT22;54569;52.018;5.584;2022-12-31T13:23:38;15.30;99.70
67769;DHT22;54569;52.018;5.584;2022-12-31T13:26:13;15.30;99.70
67769;DHT22;54569;52.018;5.584;2022-12-31T13:28:41;15.30;99.50
67769;DHT22;54569;52.018;5.584;2022-12-31T13:31:20;15.30;99.70
67769;DHT22;54569;52.018;5.584;2022-12-31T13:33:53;15.30;99.60
67769;DHT22;54569;52.018;5.584;2022-12-31T13:36:22;15.30;99.80
67769;DHT22;54569;52.018;5.584;2022-12-31T13:38:51;15.20;99.90
67769;DHT22;54569;52.018;5.584;2022-12-31T13:41:25;15.20;99.90
67769;DHT22;54569;52.018;5.584;2022-12-31T13:44:05;15.20;99.80
67769;DHT22;54569;52.018;5.584;2022-12-31T13:47:03;15.20;99.90
67769;DHT22;54569;52.018;5.584;2022-12-31T13:49:57;15.20;99.80
67769;DHT22;54569;52.018;5.584;2022-12-31T13:52:28;15.20;99.90
67769;DHT22;54569;52.018;5.584;2022-12-31T13:55:03;15.10;99.90
67769;DHT22;54569;52.018;5.584;2022-12-31T14:00:25;15.10;99.90
67769;DHT22;54569;52.018;5.584;2022-12-31T14:05:54;15.10;99.90
67769;DHT22;54569;52.018;5.584;2022-12-31T14:08:21;15.10;99.90
67769;DHT22;54569;52.018;5.584;2022-12-31T14:13:49;15.10;99.90
67769;DHT22;54569;52.018;5.584;2022-12-31T14:17:11;15.10;99.90
67769;DHT22;54569;52.018;5.584;2022-12-31T14:19:44;15.10;99.90
67769;DHT22;54569;52.018;5.584;2022-12-31T14:25:01;15.20;99.60
67769;DHT22;54569;52.018;5.584;2022-12-31T14:27:35;15.20;99.20
67769;DHT22;54569;52.018;5.584;2022-12-31T14:30:08;15.20;98.40
67769;DHT22;54569;52.018;5.584;2022-12-31T14:35:39;15.30;98.00
67769;DHT22;54569;52.018;5.584;2022-12-31T14:38:31;15.30;96.50
67769;DHT22;54569;52.018;5.584;2022-12-31T14:52:29;15.40;96.40
67769;DHT22;54569;52.018;5.584;2022-12-31T14:57:40;15.40;95.70
67769;DHT22;54569;52.018;5.584;2022-12-31T15:00:35;15.40;95.20
67769;DHT22;54569;52.018;5.584;2022-12-31T15:05:51;15.40;95.30
67769;DHT22;54569;52.018;5.584;2022-12-31T15:08:44;15.50;94.80
67769;DHT22;54569;52.018;5.584;2022-12-31T15:11:32;15.50;95.10
67769;DHT22;54569;52.018;5.584;2022-12-31T15:22:38;15.50;94.20
67769;DHT22;54569;52.018;5.584;2022-12-31T15:25:25;15.50;94.20
67769;DHT22;54569;52.018;5.584;2022-12-31T15:27:52;15.50;93.60
67769;DHT22;54569;52.018;5.584;2022-12-31T15:33:02;15.60;92.00
67769;DHT22;54569;52.018;5.584;2022-12-31T15:38:36;15.60;93.00
67769;DHT22;54569;52.018;5.584;2022-12-31T15:41:35;15.70;93.10
67769;DHT22;54569;52.018;5.584;2022-12-31T15:46:39;15.70;91.50
67769;DHT22;54569;52.018;5.584;2022-12-31T15:49:11;15.70;92.70
67769;DHT22;54569;52.018;5.584;2022-12-31T15:51:54;15.70;92.30
67769;DHT22;54569;52.018;5.584;2022-12-31T15:54:41;15.70;91.80
67769;DHT22;54569;52.018;5.584;2022-12-31T15:57:20;15.70;91.00
67769;DHT22;54569;52.018;5.584;2022-12-31T15:59:47;15.70;91.50
67769;DHT22;54569;52.018;5.584;2022-12-31T16:02:24;15.80;92.00
67769;DHT22;54569;52.018;5.584;2022-12-31T16:04:51;15.80;91.30
67769;DHT22;54569;52.018;5.584;2022-12-31T16:07:17;15.70;91.60
67769;DHT22;54569;52.018;5.584;2022-12-31T16:09:48;15.80;91.40
67769;DHT22;54569;52.018;5.584;2022-12-31T16:12:19;15.80;90.60
67769;DHT22;54569;52.018;5.584;2022-12-31T16:14:54;15.90;90.70
67769;DHT22;54569;52.018;5.584;2022-12-31T16:17:29;15.90;90.60
67769;DHT22;54569;52.018;5.584;2022-12-31T16:19:55;15.90;90.50
67769;DHT22;54569;52.018;5.584;2022-12-31T16:22:37;15.90;90.50
67769;DHT22;54569;52.018;5.584;2022-12-31T16:25:05;15.90;90.40
67769;DHT22;54569;52.018;5.584;2022-12-31T16:27:33;15.90;90.40
67769;DHT22;54569;52.018;5.584;2022-12-31T16:30:02;15.90;90.40
67769;DHT22;54569;52.018;5.584;2022-12-31T16:32:38;15.90;90.10
67769;DHT22;54569;52.018;5.584;2022-12-31T16:35:26;15.90;89.20
67769;DHT22;54569;52.018;5.584;2022-12-31T16:38:14;15.90;86.20
67769;DHT22;54569;52.018;5.584;2022-12-31T16:40:43;15.80;89.40
67769;DHT22;54569;52.018;5.584;2022-12-31T16:43:30;15.80;90.20
67769;DHT22;54569;52.018;5.584;2022-12-31T16:46:30;15.80;87.40
67769;DHT22;54569;52.018;5.584;2022-12-31T16:49:05;15.70;83.10
67769;DHT22;54569;52.018;5.584;2022-12-31T16:51:36;15.70;89.40
67769;DHT22;54569;52.018;5.584;2022-12-31T16:54:02;15.70;90.30
67769;DHT22;54569;52.018;5.584;2022-12-31T16:56:35;15.70;90.00
67769;DHT22;54569;52.018;5.584;2022-12-31T16:59:11;15.70;89.70
67769;DHT22;54569;52.018;5.584;2022-12-31T17:01:40;15.70;89.90
67769;DHT22;54569;52.018;5.584;2022-12-31T17:04:09;15.70;89.60
67769;DHT22;54569;52.018;5.584;2022-12-31T17:06:35;15.70;90.00
67769;DHT22;54569;52.018;5.584;2022-12-31T17:09:14;15.70;89.40
67769;DHT22;54569;52.018;5.584;2022-12-31T17:12:11;15.60;89.00
67769;DHT22;54569;52.018;5.584;2022-12-31T17:14:49;15.60;82.70
67769;DHT22;54569;52.018;5.584;2022-12-31T17:17:21;15.60;84.30
67769;DHT22;54569;52.018;5.584;2022-12-31T17:19:49;15.60;87.60
67769;DHT22;54569;52.018;5.584;2022-12-31T17:24:58;15.60;87.40
67769;DHT22;54569;52.018;5.584;2022-12-31T17:27:24;15.60;84.40
67769;DHT22;54569;52.018;5.584;2022-12-31T17:29:50;15.60;87.70
67769;DHT22;54569;52.018;5.584;2022-12-31T17:34:50;15.50;87.30
67769;DHT22;54569;52.018;5.584;2022-12-31T17:37:19;15.50;87.90
67769;DHT22;54569;52.018;5.584;2022-12-31T17:39:54;15.50;87.80
67769;DHT22;54569;52.018;5.584;2022-12-31T17:42:35;15.50;87.00
67769;DHT22;54569;52.018;5.584;2022-12-31T17:45:05;15.50;83.90
67769;DHT22;54569;52.018;5.584;2022-12-31T17:47:37;15.50;87.10
67769;DHT22;54569;52.018;5.584;2022-12-31T17:50:26;15.50;87.20
67769;DHT22;54569;52.018;5.584;2022-12-31T17:52:56;15.40;82.80
67769;DHT22;54569;52.018;5.584;2022-12-31T17:55:23;15.40;86.70
67769;DHT22;54569;52.018;5.584;2022-12-31T17:57:55;15.40;86.60
67769;DHT22;54569;52.018;5.584;2022-12-31T18:00:24;15.40;84.50
67769;DHT22;54569;52.018;5.584;2022-12-31T18:02:52;15.40;85.80
67769;DHT22;54569;52.018;5.584;2022-12-31T18:05:20;15.50;85.40
67769;DHT22;54569;52.018;5.584;2022-12-31T18:07:46;15.50;85.30
67769;DHT22;54569;52.018;5.584;2022-12-31T18:10:13;15.50;85.30
67769;DHT22;54569;52.018;5.584;2022-12-31T18:12:41;15.50;85.60
67769;DHT22;54569;52.018;5.584;2022-12-31T18:15:07;15.50;84.50
67769;DHT22;54569;52.018;5.584;2022-12-31T18:17:33;15.50;84.20
67769;DHT22;54569;52.018;5.584;2022-12-31T18:19:59;15.50;84.00
67769;DHT22;54569;52.018;5.584;2022-12-31T18:22:25;15.60;84.00
67769;DHT22;54569;52.018;5.584;2022-12-31T18:24:54;15.60;83.90
67769;DHT22;54569;52.018;5.584;2022-12-31T18:27:25;15.60;83.20
67769;DHT22;54569;52.018;5.584;2022-12-31T18:29:51;15.60;82.30
67769;DHT22;54569;52.018;5.584;2022-12-31T18:32:23;15.60;82.10
67769;DHT22;54569;52.018;5.584;2022-12-31T18:34:49;15.60;81.80
67769;DHT22;54569;52.018;5.584;2022-12-31T18:37:15;15.60;82.50
67769;DHT22;54569;52.018;5.584;2022-12-31T18:39:41;15.60;82.00
67769;DHT22;54569;52.018;5.584;2022-12-31T18:42:13;15.60;81.50
67769;DHT22;54569;52.018;5.584;2022-12-31T18:44:43;15.60;76.80
67769;DHT22;54569;52.018;5.584;2022-12-31T18:47:11;15.70;79.40
67769;DHT22;54569;52.018;5.584;2022-12-31T18:49:37;15.70;80.30
67769;DHT22;54569;52.018;5.584;2022-12-31T18:52:03;15.70;80.40
67769;DHT22;54569;52.018;5.584;2022-12-31T18:54:29;15.70;79.90
67769;DHT22;54569;52.018;5.584;2022-12-31T18:56:54;15.70;79.50
67769;DHT22;54569;52.018;5.584;2022-12-31T18:59:22;15.70;79.80
67769;DHT22;54569;52.018;5.584;2022-12-31T19:01:48;15.70;79.40
67769;DHT22;54569;52.018;5.584;2022-12-31T19:09:30;15.70;79.10
67769;DHT22;54569;52.018;5.584;2022-12-31T19:11:56;15.70;79.00
67769;DHT22;54569;52.018;5.584;2022-12-31T19:14:23;15.70;78.90
67769;DHT22;54569;52.018;5.584;2022-12-31T19:16:51;15.70;78.40
67769;DHT22;54569;52.018;5.584;2022-12-31T19:19:17;15.70;78.40
67769;DHT22;54569;52.018;5.584;2022-12-31T19:21:43;15.70;78.00
67769;DHT22;54569;52.018;5.584;2022-12-31T19:24:24;15.70;78.70
67769;DHT22;54569;52.018;5.584;2022-12-31T19:26:51;15.70;71.90
67769;DHT22;54569;52.018;5.584;2022-12-31T19:29:19;15.70;76.90
67769;DHT22;54569;52.018;5.584;2022-12-31T19:31:45;15.70;77.10
67769;DHT22;54569;52.018;5.584;2022-12-31T19:34:11;15.70;76.50
67769;DHT22;54569;52.018;5.584;2022-12-31T19:36:38;15.80;76.40
67769;DHT22;54569;52.018;5.584;2022-12-31T19:39:05;15.70;76.20
67769;DHT22;54569;52.018;5.584;2022-12-31T19:41:32;15.70;75.70
67769;DHT22;54569;52.018;5.584;2022-12-31T19:43:58;15.70;76.10
67769;DHT22;54569;52.018;5.584;2022-12-31T19:46:23;15.70;75.60
67769;DHT22;54569;52.018;5.584;2022-12-31T19:48:50;15.70;75.80
67769;DHT22;54569;52.018;5.584;2022-12-31T19:51:17;15.70;75.60
67769;DHT22;54569;52.018;5.584;2022-12-31T19:53:44;15.60;75.10
67769;DHT22;54569;52.018;5.584;2022-12-31T19:56:16;15.60;75.50
67769;DHT22;54569;52.018;5.584;2022-12-31T19:58:42;15.60;74.30
67769;DHT22;54569;52.018;5.584;2022-12-31T20:01:18;15.60;75.50
67769;DHT22;54569;52.018;5.584;2022-12-31T20:03:45;15.50;73.20
67769;DHT22;54569;52.018;5.584;2022-12-31T20:06:11;15.50;76.00